sensor_id;sensor_type;location;lat;lon;timestamp;temperature;humidity
19947;DHT22;10135;50.702;7.276;2023-12-28T06:01:43;12.00;62.30
19947;DHT22;10135;50.702;7.276;2023-12-28T06:03:44;12.00;62.10
19947;DHT22;10135;50.702;7.276;2023-12-28T06:05:45;12.00;62.20
19947;DHT22;10135;50.702;7.276;2023-12-28T06:07:46;12.00;62.30
19947;DHT22;10135;50.702;7.276;2023-12-28T06:09:47;12.00;62.20
19947;DHT22;10135;50.702;7.276;2023-12-28T06:11:47;12.00;62.30
19947;DHT22;10135;50.702;7.276;2023-12-28T06:13:48;12.00;62.30
19947;DHT22;10135;50.702;7.276;2023-12-28T06:15:48;12.00;62.30
19947;DHT22;10135;50.702;7.276;2023-12-28T06:17:49;12.00;62.30
19947;DHT22;10135;50.702;7.276;2023-12-28T06:19:50;12.00;62.30
19947;DHT22;10135;50.702;7.276;2023-12-28T06:21:50;12.00;62.40
19947;DHT22;10135;50.702;7.276;2023-12-28T06:23:51;12.00;62.40
19947;DHT22;10135;50.702;7.276;2023-12-28T06:25:52;12.00;62.40
19947;DHT22;10135;50.702;7.276;2023-12-28T06:27:52;12.00;62.40
19947;DHT22;10135;50.702;7.276;2023-12-28T06:29:53;12.00;62.40
19947;DHT22;10135;50.702;7.276;2023-12-28T06:31:53;12.10;62.50
19947;DHT22;10135;50.702;7.276;2023-12-28T06:33:54;12.00;62.40
19947;DHT22;10135;50.702;7.276;2023-12-28T06:35:55;12.00;62.50
19947;DHT22;10135;50.702;7.276;2023-12-28T06:37:58;12.00;62.50
19947;DHT22;10135;50.702;7.276;2023-12-28T06:39:58;12.00;62.50
19947;DHT22;10135;50.702;7.276;2023-12-28T06:41:59;12.00;62.50
19947;DHT22;10135;50.702;7.276;2023-12-28T06:43:59;12.00;62.50
19947;DHT22;10135;50.702;7.276;2023-12-28T06:46:00;12.00;62.50
19947;DHT22;10135;50.702;7.276;2023-12-28T06:48:01;12.00;62.50
19947;DHT22;10135;50.702;7.276;2023-12-28T06:50:01;12.00;62.50
19947;DHT22;10135;50.702;7.276;2023-12-28T06:52:02;12.00;62.50
19947;DHT22;10135;50.702;7.276;2023-12-28T06:54:03;12.00;62.50
19947;DHT22;10135;50.702;7.276;2023-12-28T06:56:04;12.00;62.50
19947;DHT22;10135;50.702;7.276;2023-12-28T06:58:05;12.00;63.30
19947;DHT22;10135;50.702;7.276;2023-12-28T07:00:07;12.00;62.50
19947;DHT22;10135;50.702;7.276;2023-12-28T07:02:09;12.00;62.50
19947;DHT22;10135;50.702;7.276;2023-12-28T07:04:09;12.00;62.50
19947;DHT22;10135;50.702;7.276;2023-12-28T07:06:10;12.00;62.50
19947;DHT22;10135;50.702;7.276;2023-12-28T07:08:11;12.00;62.50
19947;DHT22;10135;50.702;7.276;2023-12-28T07:10:11;12.00;62.50
19947;DHT22;10135;50.702;7.276;2023-12-28T07:12:12;12.00;62.60
19947;DHT22;10135;50.702;7.276;2023-12-28T07:14:12;12.00;62.50
19947;DHT22;10135;50.702;7.276;2023-12-28T07:16:13;12.00;62.50
19947;DHT22;10135;50.702;7.276;2023-12-28T07:18:14;12.00;62.60
19947;DHT22;10135;50.702;7.276;2023-12-28T07:20:14;12.00;62.50
19947;DHT22;10135;50.702;7.276;2023-12-28T07:22:16;12.00;62.60
19947;DHT22;10135;50.702;7.276;2023-12-28T07:24:16;12.00;62.60
19947;DHT22;10135;50.702;7.276;2023-12-28T07:26:17;12.00;62.50
19947;DHT22;10135;50.702;7.276;2023-12-28T07:28:17;12.00;62.50
19947;DHT22;10135;50.702;7.276;2023-12-28T07:30:18;12.00;62.60
19947;DHT22;10135;50.702;7.276;2023-12-28T07:32:19;12.00;62.50
19947;DHT22;10135;50.702;7.276;2023-12-28T07:34:20;12.00;62.60
19947;DHT22;10135;50.702;7.276;2023-12-28T07:36:21;12.00;62.60
19947;DHT22;10135;50.702;7.276;2023-12-28T07:38:21;12.00;62.60
19947;DHT22;10135;50.702;7.276;2023-12-28T07:40:22;12.00;62.50
19947;DHT22;10135;50.702;7.276;2023-12-28T07:42:23;12.00;62.60
19947;DHT22;10135;50.702;7.276;2023-12-28T07:44:23;12.10;62.70
19947;DHT22;10135;50.702;7.276;2023-12-28T07:46:24;12.10;62.70
19947;DHT22;10135;50.702;7.276;2023-12-28T07:48:25;12.00;62.60
19947;DHT22;10135;50.702;7.276;2023-12-28T07:50:25;12.10;62.60
19947;DHT22;10135;50.702;7.276;2023-12-28T07:52:26;12.10;62.70
19947;DHT22;10135;50.702;7.276;2023-12-28T07:54:27;12.10;62.70
19947;DHT22;10135;50.702;7.276;2023-12-28T07:56:28;12.10;62.70
19947;DHT22;10135;50.702;7.276;2023-12-28T07:58:29;12.10;62.70
19947;DHT22;10135;50.702;7.276;2023-12-28T08:00:29;12.10;62.70
19947;DHT22;10135;50.702;7.276;2023-12-28T08:02:30;12.10;62.70
19947;DHT22;10135;50.702;7.276;2023-12-28T08:04:31;12.10;62.70
19947;DHT22;10135;50.702;7.276;2023-12-28T08:06:32;12.10;62.70
19947;DHT22;10135;50.702;7.276;2023-12-28T08:08:33;12.10;62.70
19947;DHT22;10135;50.702;7.276;2023-12-28T08:10:34;12.10;62.60
19947;DHT22;10135;50.702;7.276;2023-12-28T08:12:35;12.10;62.70
19947;DHT22;10135;50.702;7.276;2023-12-28T08:14:35;12.20;62.70
19947;DHT22;10135;50.702;7.276;2023-12-28T08:16:36;12.20;62.70
19947;DHT22;10135;50.702;7.276;2023-12-28T08:18:37;12.20;62.70
19947;DHT22;10135;50.702;7.276;2023-12-28T08:20:37;12.20;62.70
19947;DHT22;10135;50.702;7.276;2023-12-28T08:22:38;12.20;62.70
19947;DHT22;10135;50.702;7.276;2023-12-28T08:24:39;12.20;62.70
19947;DHT22;10135;50.702;7.276;2023-12-28T08:26:39;12.30;62.70
19947;DHT22;10135;50.702;7.276;2023-12-28T08:28:40;12.30;62.80
19947;DHT22;10135;50.702;7.276;2023-12-28T08:30:41;12.30;62.80
19947;DHT22;10135;50.702;7.276;2023-12-28T08:32:42;12.30;62.70
19947;DHT22;10135;50.702;7.276;2023-12-28T08:34:42;12.40;62.80
19947;DHT22;10135;50.702;7.276;2023-12-28T08:36:43;12.40;62.90
19947;DHT22;10135;50.702;7.276;2023-12-28T08:38:44;12.40;62.80
19947;DHT22;10135;50.702;7.276;2023-12-28T08:40:45;12.50;62.80
19947;DHT22;10135;50.702;7.276;2023-12-28T08:42:46;12.50;62.90
19947;DHT22;10135;50.702;7.276;2023-12-28T08:44:46;12.60;63.20
19947;DHT22;10135;50.702;7.276;2023-12-28T08:46:47;12.70;63.20
19947;DHT22;10135;50.702;7.276;2023-12-28T08:48:47;12.90;63.20
19947;DHT22;10135;50.702;7.276;2023-12-28T08:50:49;13.00;63.20
19947;DHT22;10135;50.702;7.276;2023-12-28T08:52:49;13.10;63.20
19947;DHT22;10135;50.702;7.276;2023-12-28T08:54:50;13.20;63.20
19947;DHT22;10135;50.702;7.276;2023-12-28T08:56:50;13.40;63.40
19947;DHT22;10135;50.702;7.276;2023-12-28T08:58:51;13.60;63.50
19947;DHT22;10135;50.702;7.276;2023-12-28T09:00:52;13.80;63.70
19947;DHT22;10135;50.702;7.276;2023-12-28T09:02:53;14.00;63.70
19947;DHT22;10135;50.702;7.276;2023-12-28T09:04:54;14.20;63.30
19947;DHT22;10135;50.702;7.276;2023-12-28T09:06:54;14.40;62.90
19947;DHT22;10135;50.702;7.276;2023-12-28T09:08:55;14.60;62.90
19947;DHT22;10135;50.702;7.276;2023-12-28T09:10:56;14.70;62.50
19947;DHT22;10135;50.702;7.276;2023-12-28T09:12:57;14.90;62.20
19947;DHT22;10135;50.702;7.276;2023-12-28T09:14:58;15.00;62.00
19947;DHT22;10135;50.702;7.276;2023-12-28T09:16:58;15.10;61.60
19947;DHT22;10135;50.702;7.276;2023-12-28T09:18:59;15.20;61.10
19947;DHT22;10135;50.702;7.276;2023-12-28T09:20:59;15.20;60.90
19947;DHT22;10135;50.702;7.276;2023-12-28T09:23:01;15.30;60.90
19947;DHT22;10135;50.702;7.276;2023-12-28T09:25:01;15.30;60.70
19947;DHT22;10135;50.702;7.276;2023-12-28T09:27:02;15.30;60.50
19947;DHT22;10135;50.702;7.276;2023-12-28T09:29:03;15.30;60.30
19947;DHT22;10135;50.702;7.276;2023-12-28T09:31:04;15.30;60.30
19947;DHT22;10135;50.702;7.276;2023-12-28T09:33:05;15.20;60.10
19947;DHT22;10135;50.702;7.276;2023-12-28T09:35:06;15.20;60.10
19947;DHT22;10135;50.702;7.276;2023-12-28T09:37:06;15.10;60.00
19947;DHT22;10135;50.702;7.276;2023-12-28T09:39:07;15.10;60.00
19947;DHT22;10135;50.702;7.276;2023-12-28T09:41:14;15.00;60.00
19947;DHT22;10135;50.702;7.276;2023-12-28T09:43:25;14.90;59.80
19947;DHT22;10135;50.702;7.276;2023-12-28T09:45:26;14.80;59.70
19947;DHT22;10135;50.702;7.276;2023-12-28T09:47:27;14.70;60.00
19947;DHT22;10135;50.702;7.276;2023-12-28T09:49:30;14.70;60.00
19947;DHT22;10135;50.702;7.276;2023-12-28T09:51:31;14.60;60.10
19947;DHT22;10135;50.702;7.276;2023-12-28T09:53:32;14.50;60.10
19947;DHT22;10135;50.702;7.276;2023-12-28T09:55:32;14.50;60.20
19947;DHT22;10135;50.702;7.276;2023-12-28T09:57:33;14.40;60.20
19947;DHT22;10135;50.702;7.276;2023-12-28T09:59:35;14.40;60.30
19947;DHT22;10135;50.702;7.276;2023-12-28T10:01:36;14.30;60.30
19947;DHT22;10135;50.702;7.276;2023-12-28T10:03:37;14.30;60.30
19947;DHT22;10135;50.702;7.276;2023-12-28T10:05:37;14.20;60.20
19947;DHT22;10135;50.702;7.276;2023-12-28T10:07:42;14.20;60.30
19947;DHT22;10135;50.702;7.276;2023-12-28T10:09:43;14.20;60.30
19947;DHT22;10135;50.702;7.276;2023-12-28T10:11:44;14.10;60.30
19947;DHT22;10135;50.702;7.276;2023-12-28T10:13:45;14.10;60.40
19947;DHT22;10135;50.702;7.276;2023-12-28T10:15:46;14.10;60.40
19947;DHT22;10135;50.702;7.276;2023-12-28T10:17:47;14.00;60.40
19947;DHT22;10135;50.702;7.276;2023-12-28T10:19:48;14.00;60.40
19947;DHT22;10135;50.702;7.276;2023-12-28T10:21:49;14.00;60.40
19947;DHT22;10135;50.702;7.276;2023-12-28T10:23:49;14.00;60.50
19947;DHT22;10135;50.702;7.276;2023-12-28T10:25:50;14.00;60.40
19947;DHT22;10135;50.702;7.276;2023-12-28T10:27:53;14.00;60.50
19947;DHT22;10135;50.702;7.276;2023-12-28T10:29:57;14.00;60.40
19947;DHT22;10135;50.702;7.276;2023-12-28T10:31:58;14.00;60.30
19947;DHT22;10135;50.702;7.276;2023-12-28T10:33:59;14.00;60.40
19947;DHT22;10135;50.702;7.276;2023-12-28T10:36:07;14.00;60.40
19947;DHT22;10135;50.702;7.276;2023-12-28T10:38:10;14.00;60.30
19947;DHT22;10135;50.702;7.276;2023-12-28T10:40:16;14.00;60.40
19947;DHT22;10135;50.702;7.276;2023-12-28T10:42:49;14.00;60.40
19947;DHT22;10135;50.702;7.276;2023-12-28T10:45:03;14.00;60.10
19947;DHT22;10135;50.702;7.276;2023-12-28T10:47:11;14.00;60.30
19947;DHT22;10135;50.702;7.276;2023-12-28T10:49:21;14.00;60.30
19947;DHT22;10135;50.702;7.276;2023-12-28T10:51:25;14.00;60.30
19947;DHT22;10135;50.702;7.276;2023-12-28T10:56:20;14.00;60.40
19947;DHT22;10135;50.702;7.276;2023-12-28T11:01:10;14.00;60.00
19947;DHT22;10135;50.702;7.276;2023-12-28T11:03:18;14.00;60.30
19947;DHT22;10135;50.702;7.276;2023-12-28T11:05:25;14.00;60.20
19947;DHT22;10135;50.702;7.276;2023-12-28T11:16:59;14.10;59.90
19947;DHT22;10135;50.702;7.276;2023-12-28T11:19:04;14.10;60.20
19947;DHT22;10135;50.702;7.276;2023-12-28T11:21:06;14.10;60.20
19947;DHT22;10135;50.702;7.276;2023-12-28T11:23:07;14.10;60.20
19947;DHT22;10135;50.702;7.276;2023-12-28T11:25:17;14.20;60.20
19947;DHT22;10135;50.702;7.276;2023-12-28T11:27:19;14.20;59.90
19947;DHT22;10135;50.702;7.276;2023-12-28T11:29:21;14.20;60.20
19947;DHT22;10135;50.702;7.276;2023-12-28T11:31:22;14.20;60.10
19947;DHT22;10135;50.702;7.276;2023-12-28T11:33:23;14.30;60.10
19947;DHT22;10135;50.702;7.276;2023-12-28T11:35:40;14.30;60.00
19947;DHT22;10135;50.702;7.276;2023-12-28T11:37:42;14.30;59.70
19947;DHT22;10135;50.702;7.276;2023-12-28T11:39:48;14.30;59.80
19947;DHT22;10135;50.702;7.276;2023-12-28T11:41:49;14.40;59.90
19947;DHT22;10135;50.702;7.276;2023-12-28T11:43:54;14.40;59.80
19947;DHT22;10135;50.702;7.276;2023-12-28T11:45:55;14.50;59.70
19947;DHT22;10135;50.702;7.276;2023-12-28T11:48:00;14.40;59.70
19947;DHT22;10135;50.702;7.276;2023-12-28T11:50:07;14.50;59.50
19947;DHT22;10135;50.702;7.276;2023-12-28T11:52:09;14.50;59.40
19947;DHT22;10135;50.702;7.276;2023-12-28T11:54:11;14.50;59.60
19947;DHT22;10135;50.702;7.276;2023-12-28T11:56:15;14.50;59.60
19947;DHT22;10135;50.702;7.276;2023-12-28T11:58:18;14.50;59.50
19947;DHT22;10135;50.702;7.276;2023-12-28T12:00:18;14.60;59.60
19947;DHT22;10135;50.702;7.276;2023-12-28T12:02:20;14.60;59.50
19947;DHT22;10135;50.702;7.276;2023-12-28T12:04:21;14.60;59.50
19947;DHT22;10135;50.702;7.276;2023-12-28T12:06:22;14.70;59.50
19947;DHT22;10135;50.702;7.276;2023-12-28T12:08:24;14.70;59.30
19947;DHT22;10135;50.702;7.276;2023-12-28T12:10:25;14.70;59.40
19947;DHT22;10135;50.702;7.276;2023-12-28T12:12:26;14.70;59.30
19947;DHT22;10135;50.702;7.276;2023-12-28T12:14:27;14.70;59.30
19947;DHT22;10135;50.702;7.276;2023-12-28T12:16:29;14.70;59.30
19947;DHT22;10135;50.702;7.276;2023-12-28T12:18:29;14.80;59.30
19947;DHT22;10135;50.702;7.276;2023-12-28T12:20:30;14.80;59.20
19947;DHT22;10135;50.702;7.276;2023-12-28T12:22:32;14.80;59.20
19947;DHT22;10135;50.702;7.276;2023-12-28T12:24:33;14.80;59.20
19947;DHT22;10135;50.702;7.276;2023-12-28T12:26:35;14.80;59.10
19947;DHT22;10135;50.702;7.276;2023-12-28T12:28:36;14.80;59.10
19947;DHT22;10135;50.702;7.276;2023-12-28T12:30:37;14.80;59.00
19947;DHT22;10135;50.702;7.276;2023-12-28T12:32:38;14.80;59.00
19947;DHT22;10135;50.702;7.276;2023-12-28T12:34:43;14.80;58.80
19947;DHT22;10135;50.702;7.276;2023-12-28T12:36:44;14.80;58.80
19947;DHT22;10135;50.702;7.276;2023-12-28T12:38:44;14.80;58.80
19947;DHT22;10135;50.702;7.276;2023-12-28T12:40:45;14.80;58.80
19947;DHT22;10135;50.702;7.276;2023-12-28T12:42:53;14.80;58.70
19947;DHT22;10135;50.702;7.276;2023-12-28T12:44:54;14.80;58.50
19947;DHT22;10135;50.702;7.276;2023-12-28T12:46:59;14.80;58.80
19947;DHT22;10135;50.702;7.276;2023-12-28T12:49:00;14.70;58.60
19947;DHT22;10135;50.702;7.276;2023-12-28T12:51:04;14.70;58.70
19947;DHT22;10135;50.702;7.276;2023-12-28T12:53:05;14.70;58.70
19947;DHT22;10135;50.702;7.276;2023-12-28T12:55:06;14.70;58.70
19947;DHT22;10135;50.702;7.276;2023-12-28T12:57:13;14.70;58.70
19947;DHT22;10135;50.702;7.276;2023-12-28T12:59:14;14.70;58.70
19947;DHT22;10135;50.702;7.276;2023-12-28T13:01:18;14.70;58.70
19947;DHT22;10135;50.702;7.276;2023-12-28T13:03:27;14.70;58.60
19947;DHT22;10135;50.702;7.276;2023-12-28T13:05:29;14.70;58.20
19947;DHT22;10135;50.702;7.276;2023-12-28T13:07:31;14.60;58.50
19947;DHT22;10135;50.702;7.276;2023-12-28T13:09:32;14.60;58.50
19947;DHT22;10135;50.702;7.276;2023-12-28T13:11:35;14.60;58.50
19947;DHT22;10135;50.702;7.276;2023-12-28T13:13:36;14.60;58.40
19947;DHT22;10135;50.702;7.276;2023-12-28T13:15:37;14.60;58.50
19947;DHT22;10135;50.702;7.276;2023-12-28T13:17:38;14.60;58.40
19947;DHT22;10135;50.702;7.276;2023-12-28T13:19:38;14.60;59.00
19947;DHT22;10135;50.702;7.276;2023-12-28T13:21:39;14.60;58.40
19947;DHT22;10135;50.702;7.276;2023-12-28T13:23:40;14.60;58.40
19947;DHT22;10135;50.702;7.276;2023-12-28T13:25:40;14.60;58.40
19947;DHT22;10135;50.702;7.276;2023-12-28T13:27:41;14.60;58.40
19947;DHT22;10135;50.702;7.276;2023-12-28T13:29:42;14.60;58.30
19947;DHT22;10135;50.702;7.276;2023-12-28T13:31:43;14.50;58.30
19947;DHT22;10135;50.702;7.276;2023-12-28T13:33:45;14.60;58.30
19947;DHT22;10135;50.702;7.276;2023-12-28T13:35:46;14.50;58.30
19947;DHT22;10135;50.702;7.276;2023-12-28T13:37:46;14.50;58.20
19947;DHT22;10135;50.702;7.276;2023-12-28T13:39:47;14.60;58.30
19947;DHT22;10135;50.702;7.276;2023-12-28T13:41:48;14.60;58.30
19947;DHT22;10135;50.702;7.276;2023-12-28T13:43:48;14.60;58.20
19947;DHT22;10135;50.702;7.276;2023-12-28T13:45:49;14.60;58.20
19947;DHT22;10135;50.702;7.276;2023-12-28T13:47:50;14.60;58.20
19947;DHT22;10135;50.702;7.276;2023-12-28T13:49:50;14.60;58.20
19947;DHT22;10135;50.702;7.276;2023-12-28T13:51:51;14.60;58.20
19947;DHT22;10135;50.702;7.276;2023-12-28T13:53:52;14.60;58.00
19947;DHT22;10135;50.702;7.276;2023-12-28T13:55:52;14.60;58.00
19947;DHT22;10135;50.702;7.276;2023-12-28T13:57:53;14.60;58.00
19947;DHT22;10135;50.702;7.276;2023-12-28T13:59:54;14.60;58.00
19947;DHT22;10135;50.702;7.276;2023-12-28T14:01:56;14.60;58.00
19947;DHT22;10135;50.702;7.276;2023-12-28T14:03:58;14.60;57.90
19947;DHT22;10135;50.702;7.276;2023-12-28T14:05:58;14.60;57.90
19947;DHT22;10135;50.702;7.276;2023-12-28T14:08:00;14.60;57.90
19947;DHT22;10135;50.702;7.276;2023-12-28T14:10:00;14.50;57.80
19947;DHT22;10135;50.702;7.276;2023-12-28T14:12:01;14.60;57.90
19947;DHT22;10135;50.702;7.276;2023-12-28T14:14:02;14.50;57.80
19947;DHT22;10135;50.702;7.276;2023-12-28T14:16:03;14.50;57.80
19947;DHT22;10135;50.702;7.276;2023-12-28T14:18:05;14.50;57.70
19947;DHT22;10135;50.702;7.276;2023-12-28T14:20:07;14.50;57.80
19947;DHT22;10135;50.702;7.276;2023-12-28T14:22:12;14.50;57.80
19947;DHT22;10135;50.702;7.276;2023-12-28T14:24:13;14.50;57.70
19947;DHT22;10135;50.702;7.276;2023-12-28T14:26:15;14.50;57.70
19947;DHT22;10135;50.702;7.276;2023-12-28T14:28:16;14.40;57.70
19947;DHT22;10135;50.702;7.276;2023-12-28T14:30:18;14.40;57.70
19947;DHT22;10135;50.702;7.276;2023-12-28T14:32:19;14.50;57.70
19947;DHT22;10135;50.702;7.276;2023-12-28T14:34:21;14.40;57.60
19947;DHT22;10135;50.702;7.276;2023-12-28T14:36:33;14.40;57.70
19947;DHT22;10135;50.702;7.276;2023-12-28T14:38:36;14.40;57.30
19947;DHT22;10135;50.702;7.276;2023-12-28T14:40:37;14.40;57.70
19947;DHT22;10135;50.702;7.276;2023-12-28T14:42:38;14.40;57.60
19947;DHT22;10135;50.702;7.276;2023-12-28T14:44:39;14.30;57.50
19947;DHT22;10135;50.702;7.276;2023-12-28T14:46:40;14.30;57.50
19947;DHT22;10135;50.702;7.276;2023-12-28T14:48:41;14.30;57.50
19947;DHT22;10135;50.702;7.276;2023-12-28T14:50:42;14.30;57.50
19947;DHT22;10135;50.702;7.276;2023-12-28T14:52:42;14.30;57.50
19947;DHT22;10135;50.702;7.276;2023-12-28T14:54:43;14.30;57.50
19947;DHT22;10135;50.702;7.276;2023-12-28T14:56:44;14.30;57.50
19947;DHT22;10135;50.702;7.276;2023-12-28T14:58:46;14.20;57.40
19947;DHT22;10135;50.702;7.276;2023-12-28T15:00:48;14.20;57.40
19947;DHT22;10135;50.702;7.276;2023-12-28T15:02:49;14.20;57.40
19947;DHT22;10135;50.702;7.276;2023-12-28T15:04:50;14.20;57.40
19947;DHT22;10135;50.702;7.276;2023-12-28T15:06:51;14.20;57.40
19947;DHT22;10135;50.702;7.276;2023-12-28T15:08:51;14.20;57.40
19947;DHT22;10135;50.702;7.276;2023-12-28T15:10:52;14.20;57.40
19947;DHT22;10135;50.702;7.276;2023-12-28T15:12:53;14.20;57.40
19947;DHT22;10135;50.702;7.276;2023-12-28T15:14:54;14.20;57.40
19947;DHT22;10135;50.702;7.276;2023-12-28T15:16:55;14.10;57.40
19947;DHT22;10135;50.702;7.276;2023-12-28T15:18:56;14.10;57.40
19947;DHT22;10135;50.702;7.276;2023-12-28T15:20:57;14.10;57.40
19947;DHT22;10135;50.702;7.276;2023-12-28T15:22:58;14.10;57.50
19947;DHT22;10135;50.702;7.276;2023-12-28T15:24:59;14.10;57.40
19947;DHT22;10135;50.702;7.276;2023-12-28T15:27:00;14.10;57.50
19947;DHT22;10135;50.702;7.276;2023-12-28T15:29:01;14.10;57.50
19947;DHT22;10135;50.702;7.276;2023-12-28T15:31:02;14.10;57.50
19947;DHT22;10135;50.702;7.276;2023-12-28T15:33:04;14.00;57.40
19947;DHT22;10135;50.702;7.276;2023-12-28T15:35:06;14.00;57.40
19947;DHT22;10135;50.702;7.276;2023-12-28T15:37:07;14.00;57.40
19947;DHT22;10135;50.702;7.276;2023-12-28T15:39:08;14.00;57.40
19947;DHT22;10135;50.702;7.276;2023-12-28T15:41:08;14.00;58.10
19947;DHT22;10135;50.702;7.276;2023-12-28T15:43:09;13.90;57.40
19947;DHT22;10135;50.702;7.276;2023-12-28T15:45:10;13.90;57.50
19947;DHT22;10135;50.702;7.276;2023-12-28T15:47:11;13.90;57.50
19947;DHT22;10135;50.702;7.276;2023-12-28T15:49:11;13.90;57.50
19947;DHT22;10135;50.702;7.276;2023-12-28T15:51:12;13.90;57.50
19947;DHT22;10135;50.702;7.276;2023-12-28T15:53:13;13.90;57.60
19947;DHT22;10135;50.702;7.276;2023-12-28T15:55:13;13.90;57.60
19947;DHT22;10135;50.702;7.276;2023-12-28T15:57:14;13.80;57.50
19947;DHT22;10135;50.702;7.276;2023-12-28T15:59:15;13.80;57.60
19947;DHT22;10135;50.702;7.276;2023-12-28T16:01:16;13.80;58.20
19947;DHT22;10135;50.702;7.276;2023-12-28T16:03:18;13.80;57.60
19947;DHT22;10135;50.702;7.276;2023-12-28T16:05:18;13.80;57.60
19947;DHT22;10135;50.702;7.276;2023-12-28T16:07:19;13.80;57.70
19947;DHT22;10135;50.702;7.276;2023-12-28T16:09:20;13.80;57.70
19947;DHT22;10135;50.702;7.276;2023-12-28T16:11:21;13.80;57.70
19947;DHT22;10135;50.702;7.276;2023-12-28T16:13:22;13.70;57.70
19947;DHT22;10135;50.702;7.276;2023-12-28T16:15:22;13.70;57.80
19947;DHT22;10135;50.702;7.276;2023-12-28T16:17:24;13.70;57.80
19947;DHT22;10135;50.702;7.276;2023-12-28T16:19:25;13.70;57.80
19947;DHT22;10135;50.702;7.276;2023-12-28T16:21:26;13.70;57.80
19947;DHT22;10135;50.702;7.276;2023-12-28T16:23:31;13.70;57.90
19947;DHT22;10135;50.702;7.276;2023-12-28T16:25:32;13.70;57.90
19947;DHT22;10135;50.702;7.276;2023-12-28T16:27:33;13.70;57.90
19947;DHT22;10135;50.702;7.276;2023-12-28T16:29:34;13.70;57.90
19947;DHT22;10135;50.702;7.276;2023-12-28T16:31:35;13.70;57.90
19947;DHT22;10135;50.702;7.276;2023-12-28T16:33:35;13.70;58.70
19947;DHT22;10135;50.702;7.276;2023-12-28T16:35:36;13.70;58.00
19947;DHT22;10135;50.702;7.276;2023-12-28T16:37:37;13.70;58.00
19947;DHT22;10135;50.702;7.276;2023-12-28T16:39:38;13.70;58.00
19947;DHT22;10135;50.702;7.276;2023-12-28T16:41:39;13.70;58.70
19947;DHT22;10135;50.702;7.276;2023-12-28T16:43:40;13.60;58.10
19947;DHT22;10135;50.702;7.276;2023-12-28T16:45:41;13.60;58.00
19947;DHT22;10135;50.702;7.276;2023-12-28T16:47:42;13.60;58.10
19947;DHT22;10135;50.702;7.276;2023-12-28T16:49:43;13.60;58.10
19947;DHT22;10135;50.702;7.276;2023-12-28T16:51:43;13.60;58.10
19947;DHT22;10135;50.702;7.276;2023-12-28T16:53:44;13.60;58.20
19947;DHT22;10135;50.702;7.276;2023-12-28T16:55:44;13.60;58.20
19947;DHT22;10135;50.702;7.276;2023-12-28T16:57:45;13.60;58.20
19947;DHT22;10135;50.702;7.276;2023-12-28T16:59:46;13.60;58.20
19947;DHT22;10135;50.702;7.276;2023-12-28T17:01:46;13.60;58.20
19947;DHT22;10135;50.702;7.276;2023-12-28T17:03:47;13.60;58.30
19947;DHT22;10135;50.702;7.276;2023-12-28T17:05:48;13.60;58.30
19947;DHT22;10135;50.702;7.276;2023-12-28T17:07:49;13.60;58.30
19947;DHT22;10135;50.702;7.276;2023-12-28T17:09:50;13.60;58.30
19947;DHT22;10135;50.702;7.276;2023-12-28T17:12:01;13.60;58.30
19947;DHT22;10135;50.702;7.276;2023-12-28T17:14:13;13.50;58.30
19947;DHT22;10135;50.702;7.276;2023-12-28T17:16:14;13.50;58.20
19947;DHT22;10135;50.702;7.276;2023-12-28T17:18:15;13.50;58.30
19947;DHT22;10135;50.702;7.276;2023-12-28T17:20:16;13.50;58.30
19947;DHT22;10135;50.702;7.276;2023-12-28T17:22:19;13.50;58.30
19947;DHT22;10135;50.702;7.276;2023-12-28T17:24:26;13.50;58.20
19947;DHT22;10135;50.702;7.276;2023-12-28T17:26:34;13.50;58.20
19947;DHT22;10135;50.702;7.276;2023-12-28T17:30:59;13.50;58.20
19947;DHT22;10135;50.702;7.276;2023-12-28T17:33:02;13.40;58.20
19947;DHT22;10135;50.702;7.276;2023-12-28T17:35:03;13.40;58.20
19947;DHT22;10135;50.702;7.276;2023-12-28T17:37:05;13.40;58.20
19947;DHT22;10135;50.702;7.276;2023-12-28T17:39:06;13.40;58.20
19947;DHT22;10135;50.702;7.276;2023-12-28T17:41:13;13.40;58.20
19947;DHT22;10135;50.702;7.276;2023-12-28T17:43:28;13.40;58.20
19947;DHT22;10135;50.702;7.276;2023-12-28T17:46:01;13.40;58.20
19947;DHT22;10135;50.702;7.276;2023-12-28T17:48:17;13.40;58.20
19947;DHT22;10135;50.702;7.276;2023-12-28T17:50:22;13.40;58.20
19947;DHT22;10135;50.702;7.276;2023-12-28T17:52:24;13.40;58.20
19947;DHT22;10135;50.702;7.276;2023-12-28T17:54:27;13.40;58.20
19947;DHT22;10135;50.702;7.276;2023-12-28T17:56:28;13.30;58.20
19947;DHT22;10135;50.702;7.276;2023-12-28T17:58:29;13.30;58.20
19947;DHT22;10135;50.702;7.276;2023-12-28T18:00:29;13.30;58.20
19947;DHT22;10135;50.702;7.276;2023-12-28T18:02:30;13.30;58.20
19947;DHT22;10135;50.702;7.276;2023-12-28T18:04:30;13.30;58.20
19947;DHT22;10135;50.702;7.276;2023-12-28T18:06:31;13.30;58.20
19947;DHT22;10135;50.702;7.276;2023-12-28T18:08:32;13.20;58.10
19947;DHT22;10135;50.702;7.276;2023-12-28T18:10:32;13.20;58.10
19947;DHT22;10135;50.702;7.276;2023-12-28T18:12:33;13.20;58.10
19947;DHT22;10135;50.702;7.276;2023-12-28T18:14:34;13.20;58.20
19947;DHT22;10135;50.702;7.276;2023-12-28T18:16:34;13.20;58.20
19947;DHT22;10135;50.702;7.276;2023-12-28T18:18:36;13.20;58.20
19947;DHT22;10135;50.702;7.276;2023-12-28T18:20:37;13.20;58.20
19947;DHT22;10135;50.702;7.276;2023-12-28T18:22:39;13.20;58.20
19947;DHT22;10135;50.702;7.276;2023-12-28T18:24:40;13.10;58.20
19947;DHT22;10135;50.702;7.276;2023-12-28T18:26:40;13.10;58.20
19947;DHT22;10135;50.702;7.276;2023-12-28T18:28:42;13.10;58.20
19947;DHT22;10135;50.702;7.276;2023-12-28T18:30:43;13.10;58.20
19947;DHT22;10135;50.702;7.276;2023-12-28T18:32:44;13.10;58.20
19947;DHT22;10135;50.702;7.276;2023-12-28T18:34:45;13.10;58.20
19947;DHT22;10135;50.702;7.276;2023-12-28T18:36:46;13.10;58.20
19947;DHT22;10135;50.702;7.276;2023-12-28T18:38:47;13.10;58.20
19947;DHT22;10135;50.702;7.276;2023-12-28T18:40:47;13.10;58.20
19947;DHT22;10135;50.702;7.276;2023-12-28T18:42:48;13.00;58.20
19947;DHT22;10135;50.702;7.276;2023-12-28T18:44:49;13.00;58.20
19947;DHT22;10135;50.702;7.276;2023-12-28T18:46:50;13.00;58.20
19947;DHT22;10135;50.702;7.276;2023-12-28T18:48:51;13.00;58.30
19947;DHT22;10135;50.702;7.276;2023-12-28T18:50:53;13.00;58.30
19947;DHT22;10135;50.702;7.276;2023-12-28T18:52:53;13.00;58.30
19947;DHT22;10135;50.702;7.276;2023-12-28T18:54:54;12.90;58.30
19947;DHT22;10135;50.702;7.276;2023-12-28T18:56:56;12.90;58.30
19947;DHT22;10135;50.702;7.276;2023-12-28T18:58:57;13.00;58.30
19947;DHT22;10135;50.702;7.276;2023-12-28T19:00:57;12.90;58.30
19947;DHT22;10135;50.702;7.276;2023-12-28T19:02:58;12.90;58.30
19947;DHT22;10135;50.702;7.276;2023-12-28T19:04:59;12.90;58.30
19947;DHT22;10135;50.702;7.276;2023-12-28T19:06:59;12.90;58.30